Time;durP1;ratioP1;P1;durP2;ratioP2;P2;SDS_P1;SDS_P2;PMS_P1;PMS_P2;Temp;Humidity;BMP_temperature;BMP_pressure;BME280_temperature;BME280_humidity;BME280_pressure;Samples;Min_cycle;Max_cycle;Signal;HPM_P1;HPM_P2
2023/12/31 00:00:11;;;;;;;9.63;3.70;;;;;;;;;;4978420;28;20072;-78
2023/12/31 00:02:38;;;;;;;8.05;4.13;;;;;;;;;;4958470;28;20053;-78
2023/12/31 00:05:05;;;;;;;11.52;4.20;;;;;;;;;;4979121;28;20081;-78
2023/12/31 00:07:32;;;;;;;12.27;4.30;;;;;;;;;;4978601;28;20101;-77
2023/12/31 00:09:58;;;;;;;11.82;4.45;;;;;;;;;;4978427;28;20060;-78
2023/12/31 00:12:24;;;;;;;9.23;4.05;;;;;;;;;;4990411;28;20034;-77
2023/12/31 00:14:50;;;;;;;5.88;3.45;;;;;;;;;;4991416;28;20149;-78
2023/12/31 00:17:16;;;;;;;7.32;3.75;;;;;;;;;;4990643;28;20052;-78
2023/12/31 00:19:42;;;;;;;8.00;4.10;;;;;;;;;;4994449;28;20034;-78
2023/12/31 00:22:08;;;;;;;8.32;3.85;;;;;;;;;;4974037;28;21877;-77
2023/12/31 00:24:34;;;;;;;8.63;4.28;;;;;;;;;;4976760;28;20085;-78
2023/12/31 00:27:00;;;;;;;7.60;3.95;;;;;;;;;;4994323;28;20045;-78
2023/12/31 00:29:29;;;;;;;8.90;3.72;;;;;;;;;;4994575;28;20124;-78
2023/12/31 00:31:55;;;;;;;5.03;3.35;;;;;;;;;;4991362;28;20038;-78
2023/12/31 00:34:21;;;;;;;7.65;3.50;;;;;;;;;;4975574;28;20038;-78
2023/12/31 00:36:47;;;;;;;10.35;4.35;;;;;;;;;;4973661;28;20346;-77
2023/12/31 00:39:13;;;;;;;5.85;3.80;;;;;;;;;;4975664;28;20106;-78
2023/12/31 00:41:39;;;;;;;10.38;4.38;;;;;;;;;;4978575;28;20048;-78
2023/12/31 00:44:05;;;;;;;7.00;3.47;;;;;;;;;;4959252;28;20052;-78
2023/12/31 00:46:31;;;;;;;6.35;3.72;;;;;;;;;;4989820;28;20046;-78
2023/12/31 00:48:57;;;;;;;7.50;4.68;;;;;;;;;;4986384;28;20108;-78
2023/12/31 00:51:23;;;;;;;5.43;3.90;;;;;;;;;;4991011;28;20042;-77
2023/12/31 00:53:50;;;;;;;7.85;3.72;;;;;;;;;;4960054;28;20045;-78
2023/12/31 00:56:16;;;;;;;7.38;3.45;;;;;;;;;;4991119;28;20058;-78
2023/12/31 00:58:42;;;;;;;7.15;3.63;;;;;;;;;;4974690;28;20061;-78
2023/12/31 01:01:08;;;;;;;8.65;3.90;;;;;;;;;;4957896;28;20435;-78
2023/12/31 01:03:35;;;;;;;7.45;4.32;;;;;;;;;;4958605;28;20042;-78
2023/12/31 01:06:05;;;;;;;6.90;3.25;;;;;;;;;;4973704;28;20037;-77
2023/12/31 01:08:31;;;;;;;6.60;3.83;;;;;;;;;;4989474;28;20125;-78
2023/12/31 01:10:57;;;;;;;6.78;3.70;;;;;;;;;;4958527;28;20528;-78
2023/12/31 01:13:23;;;;;;;5.25;3.10;;;;;;;;;;4976992;28;20033;-78
2023/12/31 01:15:49;;;;;;;7.70;4.00;;;;;;;;;;4975730;28;20038;-78
2023/12/31 01:18:15;;;;;;;8.20;4.38;;;;;;;;;;4974287;28;21926;-78
2023/12/31 01:20:42;;;;;;;10.15;3.90;;;;;;;;;;4971896;28;20046;-79
2023/12/31 01:23:08;;;;;;;8.18;4.00;;;;;;;;;;4975408;28;20052;-78
2023/12/31 01:25:34;;;;;;;6.20;4.20;;;;;;;;;;4973956;28;20046;-79
2023/12/31 01:28:01;;;;;;;6.90;4.10;;;;;;;;;;4975174;28;20088;-77
2023/12/31 01:30:27;;;;;;;8.10;4.50;;;;;;;;;;4990595;28;20049;-77
2023/12/31 01:32:53;;;;;;;7.28;3.90;;;;;;;;;;4976877;28;20042;-77
2023/12/31 01:35:19;;;;;;;7.28;4.05;;;;;;;;;;4955251;28;20904;-77
2023/12/31 01:37:46;;;;;;;8.57;4.40;;;;;;;;;;4973848;28;20489;-78
2023/12/31 01:40:12;;;;;;;8.65;4.45;;;;;;;;;;4989320;28;20049;-78
2023/12/31 01:42:38;;;;;;;6.00;3.80;;;;;;;;;;4977112;28;20045;-77
2023/12/31 01:45:05;;;;;;;5.60;3.92;;;;;;;;;;4972608;28;20136;-77
2023/12/31 01:47:33;;;;;;;10.85;4.15;;;;;;;;;;4987114;28;20041;-77
2023/12/31 01:49:59;;;;;;;6.40;4.05;;;;;;;;;;4989131;28;20050;-78
2023/12/31 01:52:25;;;;;;;6.32;4.03;;;;;;;;;;4990536;28;20127;-78
2023/12/31 01:54:55;;;;;;;6.47;3.83;;;;;;;;;;4973234;28;20034;-78
2023/12/31 01:57:24;;;;;;;6.78;4.32;;;;;;;;;;4973545;28;20053;-78
2023/12/31 01:59:51;;;;;;;7.20;4.45;;;;;;;;;;4975079;28;20061;-78
2023/12/31 02:02:17;;;;;;;7.47;4.38;;;;;;;;;;4986583;28;20057;-78
2023/12/31 02:04:43;;;;;;;7.35;4.35;;;;;;;;;;4973688;28;20077;-79
2023/12/31 02:07:09;;;;;;;5.45;3.67;;;;;;;;;;4972050;28;20042;-79
2023/12/31 02:09:35;;;;;;;6.10;4.28;;;;;;;;;;4958078;28;20490;-78
2023/12/31 02:12:02;;;;;;;6.32;3.95;;;;;;;;;;4983225;28;20034;-78
2023/12/31 02:14:28;;;;;;;7.53;4.13;;;;;;;;;;4989353;28;20045;-78
2023/12/31 02:16:54;;;;;;;5.78;4.00;;;;;;;;;;4959974;28;20096;-78
2023/12/31 02:19:20;;;;;;;4.82;3.95;;;;;;;;;;4986957;28;20046;-78
2023/12/31 02:21:46;;;;;;;4.90;3.72;;;;;;;;;;4990684;28;20161;-78
2023/12/31 02:24:14;;;;;;;6.57;4.07;;;;;;;;;;4971192;28;20129;-77
2023/12/31 02:26:42;;;;;;;7.07;4.35;;;;;;;;;;4970120;28;20193;-78
2023/12/31 02:29:08;;;;;;;9.05;4.60;;;;;;;;;;4972590;28;20045;-78
2023/12/31 02:31:35;;;;;;;5.93;3.75;;;;;;;;;;4990098;28;20135;-79
2023/12/31 02:34:01;;;;;;;7.70;4.10;;;;;;;;;;4969267;28;20046;-79
2023/12/31 02:36:27;;;;;;;5.57;3.80;;;;;;;;;;4969281;28;20041;-80
2023/12/31 02:38:53;;;;;;;4.80;3.63;;;;;;;;;;4971601;28;20069;-78
2023/12/31 02:41:19;;;;;;;5.43;3.63;;;;;;;;;;4972934;28;20065;-78
2023/12/31 02:43:45;;;;;;;6.60;3.65;;;;;;;;;;4973238;28;20184;-78
2023/12/31 02:46:11;;;;;;;7.13;3.67;;;;;;;;;;4984794;28;20422;-79
2023/12/31 02:48:37;;;;;;;6.20;4.07;;;;;;;;;;4971976;28;20068;-78
2023/12/31 02:51:03;;;;;;;7.03;4.00;;;;;;;;;;4984876;28;20077;-78
2023/12/31 02:53:30;;;;;;;4.75;3.40;;;;;;;;;;4987885;28;20137;-78
2023/12/31 02:55:56;;;;;;;4.20;2.92;;;;;;;;;;4987708;28;20041;-79
2023/12/31 02:58:22;;;;;;;4.30;3.50;;;;;;;;;;4973803;28;20099;-79
2023/12/31 03:00:48;;;;;;;3.75;3.15;;;;;;;;;;4987078;28;20512;-79
2023/12/31 03:03:14;;;;;;;3.22;2.80;;;;;;;;;;4972398;28;20137;-79
2023/12/31 03:05:40;;;;;;;4.13;3.08;;;;;;;;;;4968404;28;20041;-79
2023/12/31 03:08:06;;;;;;;6.95;3.00;;;;;;;;;;4952498;28;20046;-79
2023/12/31 03:10:32;;;;;;;4.10;3.10;;;;;;;;;;4972451;28;20042;-78
2023/12/31 03:12:58;;;;;;;5.22;2.75;;;;;;;;;;4973165;28;20062;-79
2023/12/31 03:15:24;;;;;;;3.55;2.60;;;;;;;;;;4956430;28;20288;-78
2023/12/31 03:17:51;;;;;;;3.45;2.40;;;;;;;;;;4971454;28;20045;-79
2023/12/31 03:20:17;;;;;;;4.35;2.35;;;;;;;;;;4958884;28;20049;-78
2023/12/31 03:22:45;;;;;;;3.65;2.40;;;;;;;;;;4977053;28;20045;-78
2023/12/31 03:25:11;;;;;;;3.13;2.08;;;;;;;;;;4987631;28;20789;-78
2023/12/31 03:27:37;;;;;;;4.45;2.55;;;;;;;;;;4979920;28;20088;-77
2023/12/31 03:30:04;;;;;;;4.57;2.28;;;;;;;;;;5004141;28;20053;-77
2023/12/31 03:32:30;;;;;;;4.80;2.80;;;;;;;;;;4974746;28;20386;-78
2023/12/31 03:34:56;;;;;;;2.83;1.80;;;;;;;;;;4960732;28;20449;-78
2023/12/31 03:37:23;;;;;;;3.22;2.65;;;;;;;;;;4972652;28;20042;-79
2023/12/31 03:39:51;;;;;;;2.88;1.95;;;;;;;;;;4974276;28;20068;-79
2023/12/31 03:42:17;;;;;;;5.93;2.08;;;;;;;;;;4960096;28;20117;-79
2023/12/31 03:44:44;;;;;;;2.80;1.95;;;;;;;;;;4956301;28;20048;-79
2023/12/31 03:47:10;;;;;;;3.58;1.95;;;;;;;;;;4975290;28;20539;-78
2023/12/31 03:49:36;;;;;;;1.98;1.75;;;;;;;;;;4976411;28;20536;-78
2023/12/31 03:52:02;;;;;;;8.00;2.10;;;;;;;;;;4993901;28;20087;-79
2023/12/31 03:54:28;;;;;;;3.25;1.67;;;;;;;;;;4972228;28;20118;-78
2023/12/31 03:56:54;;;;;;;2.58;1.92;;;;;;;;;;4970913;28;20041;-78
2023/12/31 03:59:20;;;;;;;2.53;1.77;;;;;;;;;;4987575;28;20041;-78
2023/12/31 04:01:46;;;;;;;3.05;1.98;;;;;;;;;;4977602;28;20076;-78
2023/12/31 04:04:14;;;;;;;2.85;2.40;;;;;;;;;;4990085;28;20104;-78
2023/12/31 04:06:42;;;;;;;3.65;1.98;;;;;;;;;;4993676;28;20151;-78
2023/12/31 04:09:09;;;;;;;4.28;1.98;;;;;;;;;;4990743;28;20037;-78
2023/12/31 04:11:35;;;;;;;2.53;1.50;;;;;;;;;;4988502;28;20050;-78
2023/12/31 04:14:01;;;;;;;3.10;1.70;;;;;;;;;;4974267;28;20517;-78
2023/12/31 04:16:27;;;;;;;5.75;1.80;;;;;;;;;;4959283;28;20076;-79
2023/12/31 04:18:53;;;;;;;3.00;1.90;;;;;;;;;;4990794;28;20030;-79
2023/12/31 04:21:19;;;;;;;3.13;1.95;;;;;;;;;;4977979;28;20044;-79
2023/12/31 04:23:45;;;;;;;3.60;2.08;;;;;;;;;;4991211;28;20401;-79
2023/12/31 04:26:11;;;;;;;2.35;1.90;;;;;;;;;;4993897;28;20122;-79
2023/12/31 04:28:37;;;;;;;2.80;2.45;;;;;;;;;;4971164;28;20483;-78
2023/12/31 04:31:04;;;;;;;2.13;1.92;;;;;;;;;;4962306;28;20398;-78
2023/12/31 04:33:30;;;;;;;4.40;2.42;;;;;;;;;;4975281;28;20053;-78
2023/12/31 04:35:56;;;;;;;6.15;2.42;;;;;;;;;;4976520;28;20088;-78
2023/12/31 04:38:22;;;;;;;5.72;2.28;;;;;;;;;;4961827;28;20045;-78
2023/12/31 04:40:48;;;;;;;3.00;2.20;;;;;;;;;;4990139;28;20077;-78
2023/12/31 04:43:14;;;;;;;4.30;2.40;;;;;;;;;;4974281;28;20369;-78
2023/12/31 04:45:40;;;;;;;4.05;2.35;;;;;;;;;;4977445;28;20033;-78
2023/12/31 04:48:07;;;;;;;4.70;2.40;;;;;;;;;;4973130;28;20133;-78
2023/12/31 04:50:33;;;;;;;5.20;2.20;;;;;;;;;;4958539;28;20054;-77
2023/12/31 04:52:59;;;;;;;4.80;2.70;;;;;;;;;;4983738;28;20400;-77
2023/12/31 04:55:25;;;;;;;3.95;2.58;;;;;;;;;;4980494;28;20346;-78
2023/12/31 04:57:51;;;;;;;3.65;2.45;;;;;;;;;;4959578;28;20133;-78
2023/12/31 05:00:18;;;;;;;3.90;2.17;;;;;;;;;;4976844;28;20096;-77
2023/12/31 05:02:44;;;;;;;5.22;2.45;;;;;;;;;;4972635;28;20038;-77
2023/12/31 05:05:10;;;;;;;5.72;2.38;;;;;;;;;;4992876;28;20561;-77
2023/12/31 05:07:36;;;;;;;5.35;2.55;;;;;;;;;;4993562;28;20524;-77
2023/12/31 05:10:02;;;;;;;3.38;2.40;;;;;;;;;;4977635;28;20060;-77
2023/12/31 05:12:28;;;;;;;4.07;2.45;;;;;;;;;;4991043;28;20037;-77
2023/12/31 05:14:54;;;;;;;4.97;2.45;;;;;;;;;;4977890;28;20037;-77
2023/12/31 05:17:20;;;;;;;2.97;2.20;;;;;;;;;;4975293;28;20053;-76
2023/12/31 05:19:47;;;;;;;3.28;2.10;;;;;;;;;;4973457;28;20682;-77
2023/12/31 05:22:13;;;;;;;3.42;2.50;;;;;;;;;;4975879;28;20144;-77
2023/12/31 05:24:39;;;;;;;3.25;2.55;;;;;;;;;;4975950;28;20121;-77
2023/12/31 05:27:05;;;;;;;6.95;2.47;;;;;;;;;;4994472;28;20512;-77
2023/12/31 05:29:31;;;;;;;5.63;3.67;;;;;;;;;;4977568;28;20037;-77
2023/12/31 05:31:57;;;;;;;4.72;2.50;;;;;;;;;;4974621;28;20042;-77
2023/12/31 05:34:25;;;;;;;2.90;2.17;;;;;;;;;;4976794;28;20045;-76
2023/12/31 05:36:51;;;;;;;2.47;2.13;;;;;;;;;;4973257;28;20140;-77
2023/12/31 05:39:17;;;;;;;2.85;2.20;;;;;;;;;;4973865;28;20046;-76
2023/12/31 05:41:43;;;;;;;4.10;2.70;;;;;;;;;;4976487;28;20034;-76
2023/12/31 05:44:09;;;;;;;3.55;2.40;;;;;;;;;;4958979;28;20038;-76
2023/12/31 05:46:35;;;;;;;4.43;2.70;;;;;;;;;;4975350;28;20045;-77
2023/12/31 05:49:01;;;;;;;5.38;2.63;;;;;;;;;;4991810;28;20037;-76
2023/12/31 05:51:27;;;;;;;3.78;3.03;;;;;;;;;;4958743;28;20173;-77
2023/12/31 05:53:53;;;;;;;4.45;2.35;;;;;;;;;;4975790;28;20042;-76
2023/12/31 05:56:19;;;;;;;4.53;2.58;;;;;;;;;;4992204;28;20045;-76
2023/12/31 05:58:46;;;;;;;2.75;2.40;;;;;;;;;;4960553;28;20095;-77
2023/12/31 06:01:12;;;;;;;3.88;2.60;;;;;;;;;;4976436;28;20400;-78
2023/12/31 06:03:38;;;;;;;4.72;2.40;;;;;;;;;;4971756;28;20042;-77
2023/12/31 06:06:05;;;;;;;2.95;2.38;;;;;;;;;;4988985;28;20042;-77
2023/12/31 06:08:31;;;;;;;4.50;2.55;;;;;;;;;;4971208;28;20046;-77
2023/12/31 06:10:57;;;;;;;4.75;2.33;;;;;;;;;;4969585;28;20041;-78
2023/12/31 06:13:23;;;;;;;5.78;2.38;;;;;;;;;;4980499;28;20041;-78
2023/12/31 06:15:49;;;;;;;2.78;2.22;;;;;;;;;;4992847;28;20066;-78
2023/12/31 06:18:15;;;;;;;3.05;2.15;;;;;;;;;;4960521;28;20037;-78
2023/12/31 06:20:41;;;;;;;3.00;2.50;;;;;;;;;;4961235;28;20041;-77
2023/12/31 06:23:08;;;;;;;4.80;2.47;;;;;;;;;;4960113;28;20042;-78
2023/12/31 06:25:34;;;;;;;4.82;3.03;;;;;;;;;;4978346;28;20049;-78
2023/12/31 06:28:00;;;;;;;3.92;2.38;;;;;;;;;;4976328;28;20042;-76
2023/12/31 06:30:26;;;;;;;3.33;2.10;;;;;;;;;;4991790;28;20083;-77
2023/12/31 06:32:52;;;;;;;6.22;2.65;;;;;;;;;;4976954;28;20069;-77
2023/12/31 06:35:18;;;;;;;3.00;2.70;;;;;;;;;;4990845;28;20067;-77
2023/12/31 06:37:44;;;;;;;5.47;2.25;;;;;;;;;;4976284;28;20484;-77
2023/12/31 06:40:11;;;;;;;3.90;2.58;;;;;;;;;;4984450;28;20143;-77
2023/12/31 06:42:37;;;;;;;3.72;2.20;;;;;;;;;;4971040;28;20124;-77
2023/12/31 06:45:04;;;;;;;4.13;2.60;;;;;;;;;;4977434;28;20037;-78
2023/12/31 06:47:31;;;;;;;2.65;2.30;;;;;;;;;;4973347;28;20408;-77
2023/12/31 06:49:57;;;;;;;4.47;2.40;;;;;;;;;;4987579;28;20515;-77
2023/12/31 06:52:23;;;;;;;2.90;2.30;;;;;;;;;;4991918;28;20116;-77
2023/12/31 06:54:49;;;;;;;3.13;2.63;;;;;;;;;;4987412;28;20041;-77
2023/12/31 06:57:15;;;;;;;3.70;2.58;;;;;;;;;;4975120;28;20049;-77
2023/12/31 06:59:42;;;;;;;2.70;2.50;;;;;;;;;;4973421;28;20160;-77
2023/12/31 07:02:08;;;;;;;4.03;2.50;;;;;;;;;;4986222;28;20042;-77
2023/12/31 07:04:34;;;;;;;3.50;2.45;;;;;;;;;;4970961;28;20057;-77
2023/12/31 07:07:00;;;;;;;6.25;2.85;;;;;;;;;;5008912;28;20140;-77
2023/12/31 07:09:28;;;;;;;2.83;2.63;;;;;;;;;;4969570;28;20044;-77
2023/12/31 07:11:55;;;;;;;6.15;2.50;;;;;;;;;;4975110;28;20481;-77
2023/12/31 07:14:23;;;;;;;3.65;2.70;;;;;;;;;;4987035;28;20156;-77
2023/12/31 07:16:49;;;;;;;3.92;2.60;;;;;;;;;;4986196;28;20054;-77
2023/12/31 07:19:16;;;;;;;3.75;2.28;;;;;;;;;;4967427;28;20140;-77
2023/12/31 07:21:42;;;;;;;6.35;2.60;;;;;;;;;;4969446;28;20046;-78
2023/12/31 07:24:08;;;;;;;6.78;2.67;;;;;;;;;;4970018;28;20145;-78
2023/12/31 07:26:35;;;;;;;2.85;2.50;;;;;;;;;;4957010;28;20405;-78
2023/12/31 07:29:01;;;;;;;3.80;2.40;;;;;;;;;;4985981;28;20037;-77
2023/12/31 07:31:27;;;;;;;3.67;2.45;;;;;;;;;;4990517;28;20069;-78
2023/12/31 07:33:53;;;;;;;3.38;2.70;;;;;;;;;;4977098;28;20034;-78
2023/12/31 07:36:20;;;;;;;2.55;2.35;;;;;;;;;;4971832;28;20034;-78
2023/12/31 07:38:46;;;;;;;2.53;2.17;;;;;;;;;;4972700;28;20705;-78
2023/12/31 07:41:12;;;;;;;3.90;2.25;;;;;;;;;;4972756;28;20133;-78
2023/12/31 07:43:39;;;;;;;3.17;2.20;;;;;;;;;;4971937;28;20038;-78
2023/12/31 07:46:05;;;;;;;3.92;2.40;;;;;;;;;;4987132;28;20088;-78
2023/12/31 07:48:32;;;;;;;4.32;2.83;;;;;;;;;;4970672;28;20042;-78
2023/12/31 07:50:59;;;;;;;5.20;2.53;;;;;;;;;;4976967;28;20054;-77
2023/12/31 07:53:25;;;;;;;5.53;2.60;;;;;;;;;;4960218;28;20505;-78
2023/12/31 07:55:51;;;;;;;2.80;2.30;;;;;;;;;;4977031;28;20572;-78
2023/12/31 07:58:17;;;;;;;2.50;2.30;;;;;;;;;;4977469;28;20535;-79
2023/12/31 08:00:46;;;;;;;2.55;2.25;;;;;;;;;;4991006;28;20048;-78
2023/12/31 08:03:12;;;;;;;4.72;2.22;;;;;;;;;;4988947;28;20046;-78
2023/12/31 08:05:38;;;;;;;3.55;2.25;;;;;;;;;;4974166;28;20045;-78
2023/12/31 08:08:07;;;;;;;3.38;2.35;;;;;;;;;;4974428;28;20042;-78
2023/12/31 08:10:33;;;;;;;4.20;2.22;;;;;;;;;;4973284;28;20045;-78
2023/12/31 08:13:00;;;;;;;3.35;2.63;;;;;;;;;;4975756;28;20107;-78
2023/12/31 08:15:26;;;;;;;3.88;2.40;;;;;;;;;;4976408;28;20038;-78
2023/12/31 08:17:52;;;;;;;3.15;2.20;;;;;;;;;;4991408;28;20481;-78
2023/12/31 08:20:18;;;;;;;3.50;2.40;;;;;;;;;;4988447;28;20123;-78
2023/12/31 08:22:44;;;;;;;3.67;2.00;;;;;;;;;;4974818;28;20530;-79
2023/12/31 08:25:10;;;;;;;6.60;2.95;;;;;;;;;;4959544;28;20034;-79
2023/12/31 08:27:36;;;;;;;4.60;1.92;;;;;;;;;;4975908;28;20045;-79
2023/12/31 08:30:02;;;;;;;2.42;2.22;;;;;;;;;;4962043;28;20041;-77
2023/12/31 08:32:28;;;;;;;2.88;2.10;;;;;;;;;;4974195;28;20042;-77
2023/12/31 08:34:55;;;;;;;4.38;2.40;;;;;;;;;;4987018;28;20045;-78
2023/12/31 08:37:21;;;;;;;2.42;2.10;;;;;;;;;;4970209;28;20038;-79
2023/12/31 08:39:47;;;;;;;3.35;2.17;;;;;;;;;;4972636;28;20049;-78
2023/12/31 08:42:13;;;;;;;3.72;2.10;;;;;;;;;;4958793;28;20179;-79
2023/12/31 08:44:39;;;;;;;2.47;2.10;;;;;;;;;;4975662;28;20531;-79
2023/12/31 08:47:05;;;;;;;3.17;2.15;;;;;;;;;;4992551;28;20076;-79
2023/12/31 08:49:32;;;;;;;4.05;2.50;;;;;;;;;;4969370;28;20160;-78
2023/12/31 08:51:58;;;;;;;3.05;2.30;;;;;;;;;;4970436;28;20124;-76
2023/12/31 08:54:24;;;;;;;2.28;2.00;;;;;;;;;;4960718;28;20029;-77
2023/12/31 08:56:50;;;;;;;3.05;2.38;;;;;;;;;;4968474;28;20042;-78
2023/12/31 08:59:16;;;;;;;2.60;2.22;;;;;;;;;;4971469;28;20364;-78
2023/12/31 09:01:42;;;;;;;2.95;2.20;;;;;;;;;;4972621;28;20142;-78
2023/12/31 09:04:10;;;;;;;3.47;2.33;;;;;;;;;;4969607;28;20489;-77
2023/12/31 09:06:37;;;;;;;2.80;2.53;;;;;;;;;;4970043;28;20500;-78
2023/12/31 09:09:04;;;;;;;3.10;2.20;;;;;;;;;;4969403;28;20477;-78
2023/12/31 09:11:31;;;;;;;4.78;3.35;;;;;;;;;;4954345;28;20042;-79
2023/12/31 09:13:59;;;;;;;4.03;2.85;;;;;;;;;;4964403;28;20042;-78
2023/12/31 09:16:25;;;;;;;3.15;2.20;;;;;;;;;;4984151;28;20208;-79
2023/12/31 09:18:51;;;;;;;2.08;1.88;;;;;;;;;;4966784;28;20046;-78
2023/12/31 09:21:17;;;;;;;3.92;2.10;;;;;;;;;;4971847;28;20041;-78
2023/12/31 09:23:43;;;;;;;4.18;3.22;;;;;;;;;;4986442;28;20046;-79
2023/12/31 09:26:10;;;;;;;3.60;2.13;;;;;;;;;;4968797;28;20519;-78
2023/12/31 09:28:37;;;;;;;3.00;2.63;;;;;;;;;;4955426;28;20533;-79
2023/12/31 09:31:06;;;;;;;18.15;11.35;;;;;;;;;;4970909;28;20044;-78
2023/12/31 09:33:32;;;;;;;16.85;10.98;;;;;;;;;;4955819;28;20129;-78
2023/12/31 09:35:58;;;;;;;5.53;4.72;;;;;;;;;;4953976;28;22646;-78
2023/12/31 09:38:24;;;;;;;4.90;3.40;;;;;;;;;;4987096;28;20073;-78
2023/12/31 09:40:51;;;;;;;4.80;4.13;;;;;;;;;;4986489;28;20780;-78
2023/12/31 09:43:20;;;;;;;5.80;3.70;;;;;;;;;;4973713;28;20042;-78
2023/12/31 09:45:48;;;;;;;3.58;3.28;;;;;;;;;;4968722;28;20050;-78
2023/12/31 09:48:15;;;;;;;4.10;3.35;;;;;;;;;;4985989;28;20037;-78
2023/12/31 09:50:42;;;;;;;5.00;3.05;;;;;;;;;;4975863;28;20058;-79
2023/12/31 09:53:10;;;;;;;4.10;3.60;;;;;;;;;;4957590;28;20042;-82
2023/12/31 09:55:37;;;;;;;6.25;4.28;;;;;;;;;;4975378;28;20034;-77
2023/12/31 09:58:03;;;;;;;4.60;3.55;;;;;;;;;;4990643;28;20389;-78
2023/12/31 10:00:29;;;;;;;4.20;3.33;;;;;;;;;;4992201;28;20050;-78
2023/12/31 10:02:56;;;;;;;3.55;2.50;;;;;;;;;;4975589;28;20696;-77
2023/12/31 10:05:22;;;;;;;5.38;3.63;;;;;;;;;;4972201;28;20413;-78
2023/12/31 10:07:48;;;;;;;7.70;5.93;;;;;;;;;;4970786;28;20128;-79
2023/12/31 10:10:15;;;;;;;3.70;2.90;;;;;;;;;;4992406;28;20056;-79
2023/12/31 10:12:43;;;;;;;4.50;3.17;;;;;;;;;;4971057;28;20121;-78
2023/12/31 10:15:09;;;;;;;4.00;3.60;;;;;;;;;;4987408;28;20128;-78
2023/12/31 10:17:39;;;;;;;3.67;3.03;;;;;;;;;;4972213;28;20048;-79
2023/12/31 10:20:05;;;;;;;3.75;2.83;;;;;;;;;;4975526;28;20038;-79
2023/12/31 10:22:32;;;;;;;4.07;3.00;;;;;;;;;;4973004;28;20042;-79
2023/12/31 10:25:14;;;;;;;3.90;2.80;;;;;;;;;;4971638;28;20044;-81
2023/12/31 10:27:42;;;;;;;3.50;2.70;;;;;;;;;;4970854;28;20046;-79
2023/12/31 10:30:11;;;;;;;5.60;3.70;;;;;;;;;;4954184;28;20515;-78
2023/12/31 10:32:38;;;;;;;3.95;2.67;;;;;;;;;;4986809;28;20041;-79
2023/12/31 10:35:04;;;;;;;4.28;2.83;;;;;;;;;;4968491;28;20038;-78
2023/12/31 10:37:30;;;;;;;3.83;2.78;;;;;;;;;;4973052;28;20401;-78
2023/12/31 10:39:56;;;;;;;2.78;2.53;;;;;;;;;;4972103;28;20052;-78
2023/12/31 10:42:23;;;;;;;3.17;2.30;;;;;;;;;;4986169;28;20131;-78
2023/12/31 10:44:53;;;;;;;6.47;2.63;;;;;;;;;;4960602;28;20045;-78
2023/12/31 10:47:19;;;;;;;2.60;2.15;;;;;;;;;;4975038;28;20467;-79
2023/12/31 10:49:46;;;;;;;3.78;2.92;;;;;;;;;;4988811;28;20063;-79
2023/12/31 10:52:15;;;;;;;3.17;2.40;;;;;;;;;;4985128;28;20085;-79
2023/12/31 10:54:49;;;;;;;4.20;2.60;;;;;;;;;;4974297;28;20460;-79
2023/12/31 10:57:21;;;;;;;2.50;2.30;;;;;;;;;;4987529;28;20056;-78
2023/12/31 10:59:48;;;;;;;3.22;2.20;;;;;;;;;;4984684;28;20405;-79
2023/12/31 11:02:25;;;;;;;2.88;2.58;;;;;;;;;;4969114;28;20042;-79
2023/12/31 11:04:52;;;;;;;2.63;2.42;;;;;;;;;;4989532;28;21901;-79
2023/12/31 11:07:19;;;;;;;2.72;2.50;;;;;;;;;;4967286;28;20042;-76
2023/12/31 11:09:48;;;;;;;5.95;2.42;;;;;;;;;;4974012;28;20038;-77
2023/12/31 11:12:15;;;;;;;2.45;2.25;;;;;;;;;;4987868;28;20045;-78
2023/12/31 11:14:45;;;;;;;3.97;2.63;;;;;;;;;;4971810;28;20038;-81
2023/12/31 11:17:17;;;;;;;3.35;3.05;;;;;;;;;;4969728;28;20042;-77
2023/12/31 11:20:05;;;;;;;2.92;2.63;;;;;;;;;;4971142;28;20057;-81
2023/12/31 11:22:45;;;;;;;4.50;3.13;;;;;;;;;;4986917;28;20507;-77
2023/12/31 11:25:11;;;;;;;3.47;2.70;;;;;;;;;;4988254;28;20077;-77
2023/12/31 11:27:37;;;;;;;3.45;2.60;;;;;;;;;;4972525;28;20054;-77
2023/12/31 11:30:04;;;;;;;4.35;2.33;;;;;;;;;;4971879;28;20123;-77
2023/12/31 11:32:36;;;;;;;3.35;2.50;;;;;;;;;;4974650;28;20041;-78
2023/12/31 11:35:04;;;;;;;3.28;2.50;;;;;;;;;;4988897;28;20044;-77
2023/12/31 11:37:30;;;;;;;2.72;2.45;;;;;;;;;;4971490;28;20140;-77
2023/12/31 11:39:56;;;;;;;3.40;2.83;;;;;;;;;;4974095;28;20440;-78
2023/12/31 11:42:25;;;;;;;6.28;2.63;;;;;;;;;;4971774;28;20111;-78
2023/12/31 11:44:51;;;;;;;4.60;2.60;;;;;;;;;;4967906;28;20105;-77
2023/12/31 11:47:29;;;;;;;3.92;2.83;;;;;;;;;;4981536;28;20052;-77
2023/12/31 11:50:18;;;;;;;7.15;3.53;;;;;;;;;;4971078;28;20058;-77
2023/12/31 11:52:44;;;;;;;5.00;3.78;;;;;;;;;;4990153;28;20033;-77
2023/12/31 11:55:17;;;;;;;5.32;3.03;;;;;;;;;;4973698;28;20041;-77
2023/12/31 11:57:50;;;;;;;6.13;3.00;;;;;;;;;;4975380;28;20104;-78
2023/12/31 12:00:16;;;;;;;3.03;2.65;;;;;;;;;;4973680;28;20644;-78
2023/12/31 12:02:43;;;;;;;6.82;2.70;;;;;;;;;;4989891;28;20100;-78
2023/12/31 12:05:13;;;;;;;3.10;2.85;;;;;;;;;;4991774;28;20045;-77
2023/12/31 12:07:39;;;;;;;4.38;3.33;;;;;;;;;;4985500;28;20042;-78
2023/12/31 12:10:05;;;;;;;4.47;3.00;;;;;;;;;;4988699;28;20034;-77
2023/12/31 12:12:31;;;;;;;4.38;3.13;;;;;;;;;;4989196;28;20136;-78
2023/12/31 12:14:57;;;;;;;4.60;3.95;;;;;;;;;;4975113;28;20491;-77
2023/12/31 12:17:28;;;;;;;6.53;3.90;;;;;;;;;;4988431;28;20045;-78
2023/12/31 12:19:56;;;;;;;4.20;2.00;;;;;;;;;;4969749;28;20089;-78
2023/12/31 12:22:23;;;;;;;1.17;1.05;;;;;;;;;;4971135;28;20038;-78
2023/12/31 12:24:49;;;;;;;2.15;0.95;;;;;;;;;;4973794;28;20128;-78
2023/12/31 12:27:15;;;;;;;1.38;0.70;;;;;;;;;;4991330;28;20042;-78
2023/12/31 12:29:41;;;;;;;2.70;0.90;;;;;;;;;;4975906;28;20392;-80
2023/12/31 12:32:07;;;;;;;1.42;1.30;;;;;;;;;;4975626;28;20042;-78
2023/12/31 12:34:33;;;;;;;2.13;1.30;;;;;;;;;;4977083;28;20042;-78
2023/12/31 12:36:59;;;;;;;1.48;1.27;;;;;;;;;;4979561;28;20044;-79
2023/12/31 12:39:26;;;;;;;4.55;1.80;;;;;;;;;;4976635;28;20475;-78
2023/12/31 12:41:52;;;;;;;2.60;1.70;;;;;;;;;;4999076;28;20084;-78
2023/12/31 12:44:19;;;;;;;2.63;1.98;;;;;;;;;;4976888;28;20080;-79
2023/12/31 12:46:46;;;;;;;3.38;2.45;;;;;;;;;;4976259;28;20077;-78
2023/12/31 12:49:13;;;;;;;3.88;2.20;;;;;;;;;;4993591;28;20034;-78
2023/12/31 12:51:40;;;;;;;6.07;4.50;;;;;;;;;;4975235;28;20072;-79
2023/12/31 12:54:07;;;;;;;8.43;6.28;;;;;;;;;;4972389;28;20445;-78
2023/12/31 12:56:33;;;;;;;3.95;2.55;;;;;;;;;;4986978;28;20042;-76
2023/12/31 12:59:00;;;;;;;6.03;3.15;;;;;;;;;;4991012;28;20041;-76
2023/12/31 13:01:27;;;;;;;2.80;2.50;;;;;;;;;;4972598;28;20133;-77
2023/12/31 13:03:53;;;;;;;3.65;2.67;;;;;;;;;;4991112;28;20630;-77
2023/12/31 13:06:19;;;;;;;5.20;2.25;;;;;;;;;;4990085;28;20476;-77
2023/12/31 13:08:46;;;;;;;3.28;2.10;;;;;;;;;;4992330;28;20093;-78
2023/12/31 13:11:13;;;;;;;2.17;1.35;;;;;;;;;;4974918;28;20038;-77
2023/12/31 13:13:39;;;;;;;2.67;1.48;;;;;;;;;;4992936;28;20505;-77
2023/12/31 13:16:05;;;;;;;4.97;1.30;;;;;;;;;;4990452;28;20034;-78
2023/12/31 13:18:31;;;;;;;2.00;1.70;;;;;;;;;;4989822;28;20041;-77
2023/12/31 13:20:57;;;;;;;1.80;1.67;;;;;;;;;;4992945;28;20549;-78
2023/12/31 13:23:24;;;;;;;9.20;4.82;;;;;;;;;;4974743;28;20061;-78
2023/12/31 13:25:50;;;;;;;8.60;4.05;;;;;;;;;;4974214;28;20046;-77
2023/12/31 13:28:17;;;;;;;3.08;2.28;;;;;;;;;;4972118;28;20038;-77
2023/12/31 13:30:46;;;;;;;3.25;2.75;;;;;;;;;;4974842;28;20037;-78
2023/12/31 13:33:16;;;;;;;2.28;1.80;;;;;;;;;;4984858;28;20133;-78
2023/12/31 13:35:42;;;;;;;3.33;2.25;;;;;;;;;;4991951;28;20116;-78
2023/12/31 13:38:21;;;;;;;3.28;2.20;;;;;;;;;;4988719;28;20046;-77
2023/12/31 13:40:50;;;;;;;2.42;1.52;;;;;;;;;;4992720;28;20049;-78
2023/12/31 13:43:16;;;;;;;2.72;1.80;;;;;;;;;;4971693;28;20547;-77
2023/12/31 13:45:42;;;;;;;3.85;2.80;;;;;;;;;;4972482;28;20073;-77
2023/12/31 13:48:08;;;;;;;7.40;5.07;;;;;;;;;;4970791;28;20050;-76
2023/12/31 13:50:34;;;;;;;3.55;2.58;;;;;;;;;;4988824;28;20572;-76
2023/12/31 13:53:00;;;;;;;4.93;2.80;;;;;;;;;;4971750;28;20112;-77
2023/12/31 13:55:26;;;;;;;4.05;3.15;;;;;;;;;;4973246;28;20090;-77
2023/12/31 13:57:53;;;;;;;4.30;3.33;;;;;;;;;;4974481;28;20041;-77
2023/12/31 14:00:19;;;;;;;7.35;4.90;;;;;;;;;;4986859;28;20041;-76
2023/12/31 14:02:47;;;;;;;3.13;2.58;;;;;;;;;;4972656;28;20611;-78
2023/12/31 14:05:14;;;;;;;3.67;2.60;;;;;;;;;;4972364;28;20128;-77
2023/12/31 14:07:40;;;;;;;4.10;2.22;;;;;;;;;;4956956;28;20045;-78
2023/12/31 14:10:06;;;;;;;4.32;1.98;;;;;;;;;;4971533;28;20299;-79
2023/12/31 14:12:33;;;;;;;3.83;1.73;;;;;;;;;;4954570;28;20045;-78
2023/12/31 14:14:59;;;;;;;3.33;1.20;;;;;;;;;;4992647;28;20041;-78
2023/12/31 14:17:25;;;;;;;7.43;1.90;;;;;;;;;;4973769;28;20389;-78
2023/12/31 14:19:52;;;;;;;7.57;1.52;;;;;;;;;;4975007;28;20103;-78
2023/12/31 14:22:18;;;;;;;3.05;1.67;;;;;;;;;;4973006;28;20065;-78
2023/12/31 14:24:45;;;;;;;7.32;1.95;;;;;;;;;;4975867;28;20049;-78
2023/12/31 14:27:12;;;;;;;10.00;1.88;;;;;;;;;;4970907;28;20092;-78
2023/12/31 14:29:38;;;;;;;7.47;1.45;;;;;;;;;;4989273;28;20501;-77
2023/12/31 14:32:04;;;;;;;3.53;1.95;;;;;;;;;;4987555;28;20495;-78
2023/12/31 14:34:30;;;;;;;8.95;1.50;;;;;;;;;;4975463;28;20045;-78
2023/12/31 14:36:59;;;;;;;8.10;2.95;;;;;;;;;;4990500;28;20118;-78
2023/12/31 14:39:25;;;;;;;7.10;1.50;;;;;;;;;;4989956;28;20484;-77